Time;durP1;ratioP1;P1;durP2;ratioP2;P2;SDS_P1;SDS_P2;PMS_P1;PMS_P2;Temp;Humidity;BMP_temperature;BMP_pressure;BME280_temperature;BME280_humidity;BME280_pressure;Samples;Min_cycle;Max_cycle;Signal;HPM_P1;HPM_P2
2024/02/27 00:00:19;;;;;;;95.00;17.95;;;11.80;91.30;;;;;;5013910;28;20048;-57
2024/02/27 00:02:44;;;;;;;105.65;16.17;;;11.80;91.30;;;;;;5013707;28;20044;-57
2024/02/27 00:05:10;;;;;;;91.93;16.52;;;11.80;91.30;;;;;;5027541;28;20020;-57
2024/02/27 00:11:02;;;;;;;87.22;15.05;;;11.80;91.40;;;;;;5036471;22;20118;-84
2024/02/27 00:13:28;;;;;;;97.13;16.35;;;11.70;91.30;;;;;;5034482;28;20032;-84
2024/02/27 00:15:54;;;;;;;98.72;15.07;;;11.70;91.40;;;;;;5017199;28;20033;-83
2024/02/27 00:18:20;;;;;;;101.50;16.65;;;11.70;91.40;;;;;;5050670;28;20032;-84
2024/02/27 00:20:46;;;;;;;80.63;13.48;;;11.70;91.40;;;;;;5033902;28;20052;-84
2024/02/27 00:23:12;;;;;;;77.05;14.73;;;11.70;91.40;;;;;;5050053;28;20071;-85
2024/02/27 00:25:37;;;;;;;94.03;15.25;;;11.60;91.40;;;;;;5050456;28;20527;-85
2024/02/27 00:28:03;;;;;;;84.47;14.20;;;11.60;91.40;;;;;;5033611;28;20028;-84
2024/02/27 00:30:29;;;;;;;93.72;15.02;;;11.40;91.40;;;;;;5050074;28;20061;-85
2024/02/27 00:32:55;;;;;;;94.45;15.80;;;11.60;91.50;;;;;;5033500;28;20097;-85
2024/02/27 00:35:20;;;;;;;84.63;15.15;;;11.60;91.50;;;;;;5033491;28;20037;-84
2024/02/27 00:37:46;;;;;;;90.18;16.08;;;11.60;91.60;;;;;;5050032;28;20028;-84
2024/02/27 00:40:12;;;;;;;90.65;13.55;;;11.50;91.60;;;;;;5050087;28;20093;-85
2024/02/27 00:42:38;;;;;;;91.00;15.50;;;11.60;91.60;;;;;;5033402;28;20092;-85
2024/02/27 00:45:04;;;;;;;80.40;14.73;;;11.60;91.60;;;;;;5016322;28;20029;-84
2024/02/27 00:47:30;;;;;;;77.22;14.13;;;11.50;91.60;;;;;;5067626;28;20032;-84
2024/02/27 00:49:56;;;;;;;76.05;13.40;;;11.50;91.60;;;;;;5067613;28;20037;-84
2024/02/27 00:52:22;;;;;;;63.63;13.05;;;11.50;91.60;;;;;;5049942;28;20051;-86
2024/02/27 00:54:48;;;;;;;74.75;14.18;;;11.50;91.60;;;;;;5032960;28;20131;-84
2024/02/27 00:57:13;;;;;;;67.10;13.27;;;11.50;91.60;;;;;;5049736;28;20084;-85
2024/02/27 00:59:39;;;;;;;73.00;12.77;;;11.50;91.60;;;;;;5033040;28;20037;-84
2024/02/27 01:02:05;;;;;;;65.20;12.38;;;11.50;91.70;;;;;;5033356;28;20029;-83
2024/02/27 01:04:32;;;;;;;67.70;13.07;;;11.40;91.60;;;;;;5033151;28;20036;-84
2024/02/27 01:06:58;;;;;;;72.72;13.45;;;11.50;91.60;;;;;;5049913;28;20499;-84
2024/02/27 01:09:24;;;;;;;61.53;12.57;;;11.40;91.60;;;;;;5049450;28;20079;-84
2024/02/27 01:18:31;;;;;;;56.40;10.98;;;11.40;91.80;;;;;;4712096;22;20068;-56
2024/02/27 01:21:01;;;;;;;56.85;12.20;;;11.40;91.80;;;;;;5100596;22;20042;-85
2024/02/27 01:23:29;;;;;;;62.25;12.00;;;11.40;91.80;;;;;;5245889;23;20171;-95
2024/02/27 01:25:55;;;;;;;61.17;11.38;;;11.40;91.90;;;;;;5094642;23;20052;-96
2024/02/27 01:28:21;;;;;;;64.18;12.35;;;11.40;91.80;;;;;;5157080;22;20045;-94
2024/02/27 01:44:28;;;;;;;55.30;11.38;;;11.20;91.90;;;;;;5076105;28;20419;-85
2024/02/27 01:50:01;;;;;;;49.50;10.73;;;11.30;91.90;;;;;;5054391;28;20045;-57
2024/02/27 01:52:35;;;;;;;53.85;11.00;;;11.30;91.90;;;;;;5036808;22;20050;-87
2024/02/27 01:55:00;;;;;;;49.88;10.20;;;11.20;91.90;;;;;;5011503;28;20056;-86
2024/02/27 01:57:26;;;;;;;46.88;11.23;;;11.20;92.00;;;;;;5014846;28;20026;-87
2024/02/27 01:59:51;;;;;;;40.85;10.75;;;11.20;92.00;;;;;;5014933;28;20049;-86
2024/02/27 02:02:17;;;;;;;50.50;10.95;;;11.20;92.00;;;;;;5013569;28;20021;-86
2024/02/27 02:08:06;;;;;;;41.10;10.43;;;11.20;92.00;;;;;;5081331;22;20060;-93
2024/02/27 02:10:32;;;;;;;43.50;10.10;;;11.20;92.10;;;;;;5049895;28;20065;-93
2024/02/27 02:12:58;;;;;;;61.90;10.85;;;11.10;92.10;;;;;;5034483;28;20033;-93
2024/02/27 02:26:35;;;;;;;44.70;9.60;;;11.10;92.20;;;;;;5055914;22;20140;-86
2024/02/27 02:34:58;;;;;;;38.67;9.05;;;11.10;92.20;;;;;;5031373;22;20068;-86
2024/02/27 02:40:01;;;;;;;45.03;9.52;;;11.00;92.20;;;;;;5321157;22;20107;-92
2024/02/27 02:45:51;;;;;;;38.25;7.93;;;11.00;92.20;;;;;;5070367;22;20088;-92
2024/02/27 02:51:40;;;;;;;40.47;8.27;;;11.00;92.20;;;;;;4970263;23;20395;-85
2024/02/27 03:12:09;;;;;;;31.77;8.65;;;10.90;92.30;;;;;;5065808;28;20061;-83
2024/02/27 03:14:46;;;;;;;35.45;7.80;;;10.90;92.30;;;;;;5031780;28;20030;-85
2024/02/27 03:17:15;;;;;;;36.38;8.73;;;10.90;92.30;;;;;;5030541;28;20038;-83
2024/02/27 03:49:02;;;;;;;25.55;8.02;;;10.80;92.50;;;;;;5280478;22;20057;-85
2024/02/27 04:12:07;;;;;;;26.52;6.97;;;10.80;92.50;;;;;;5050227;28;20072;-84
2024/02/27 04:20:30;;;;;;;22.48;7.10;;;10.70;92.50;;;;;;4507509;22;20068;-84
2024/02/27 04:47:20;;;;;;;22.92;6.15;;;10.70;92.60;;;;;;5078561;28;20040;-56
2024/02/27 04:55:38;;;;;;;25.52;5.95;;;10.60;92.60;;;;;;5049226;23;20054;-84
2024/02/27 05:00:34;;;;;;;22.05;6.55;;;10.60;92.60;;;;;;5094866;22;20049;-83
2024/02/27 05:03:00;;;;;;;22.95;6.70;;;10.60;92.60;;;;;;5036401;28;20577;-83
2024/02/27 05:22:19;;;;;;;21.25;6.53;;;10.60;92.70;;;;;;5422595;22;20483;-85
2024/02/27 05:28:06;;;;;;;16.45;5.80;;;10.60;92.70;;;;;;5068431;22;20094;-55
2024/02/27 05:30:32;;;;;;;22.92;5.95;;;10.60;92.60;;;;;;5045535;28;20080;-55
2024/02/27 05:32:57;;;;;;;19.20;6.30;;;10.60;92.60;;;;;;5046019;28;20029;-55
2024/02/27 05:35:23;;;;;;;16.45;5.90;;;10.60;92.70;;;;;;5064365;28;20056;-55
2024/02/27 05:37:49;;;;;;;14.43;6.00;;;10.60;92.70;;;;;;5029811;28;20040;-55
2024/02/27 05:40:16;;;;;;;17.88;5.45;;;10.60;92.70;;;;;;5030035;28;20053;-55
2024/02/27 05:42:41;;;;;;;19.30;5.50;;;10.60;92.70;;;;;;5046361;28;20094;-55
2024/02/27 05:45:07;;;;;;;14.93;5.38;;;10.60;92.70;;;;;;5064004;28;20021;-55
2024/02/27 05:47:33;;;;;;;20.30;6.00;;;10.60;92.70;;;;;;5064179;28;20025;-55
2024/02/27 05:49:59;;;;;;;12.25;5.07;;;10.60;92.70;;;;;;5029719;28;20029;-55
2024/02/27 05:52:24;;;;;;;14.77;5.63;;;10.60;92.70;;;;;;5063975;28;20033;-55
2024/02/27 05:54:50;;;;;;;18.77;5.38;;;10.60;92.60;;;;;;5029495;28;20082;-55
2024/02/27 05:57:15;;;;;;;21.23;5.70;;;10.60;92.60;;;;;;5063887;28;20033;-55
2024/02/27 05:59:41;;;;;;;25.02;5.60;;;10.60;92.70;;;;;;5063894;28;20029;-55
2024/02/27 06:02:07;;;;;;;25.15;6.15;;;10.60;92.70;;;;;;5045580;28;20025;-58
2024/02/27 06:04:33;;;;;;;23.45;6.25;;;10.60;92.70;;;;;;5029598;28;20025;-57
2024/02/27 06:06:58;;;;;;;27.17;6.60;;;10.60;92.70;;;;;;5029260;28;20047;-57
2024/02/27 06:09:24;;;;;;;18.20;5.60;;;10.60;92.80;;;;;;5045731;28;20059;-58
2024/02/27 06:11:50;;;;;;;25.75;6.57;;;10.60;92.90;;;;;;5029532;28;20037;-57
2024/02/27 06:14:15;;;;;;;32.15;6.30;;;10.60;92.80;;;;;;5063478;28;20064;-57
2024/02/27 06:16:41;;;;;;;33.17;6.05;;;10.60;92.80;;;;;;5045982;28;20033;-58
2024/02/27 06:19:07;;;;;;;24.35;6.25;;;10.60;92.90;;;;;;5063475;28;20028;-58
2024/02/27 06:24:17;;;;;;;22.45;6.05;;;10.60;92.90;;;;;;5048484;28;20123;-58
2024/02/27 06:26:42;;;;;;;20.00;6.60;;;10.60;93.00;;;;;;5063576;28;20029;-57
2024/02/27 06:29:08;;;;;;;26.75;6.57;;;10.60;93.00;;;;;;5063585;28;20090;-58
2024/02/27 06:31:33;;;;;;;33.90;6.93;;;10.60;93.10;;;;;;5063820;28;20021;-58
2024/02/27 06:34:03;;;;;;;23.33;6.45;;;10.60;93.10;;;;;;5045763;28;20043;-57
2024/02/27 06:36:30;;;;;;;24.40;6.22;;;10.60;93.20;;;;;;5045227;28;20040;-58
2024/02/27 06:38:56;;;;;;;32.53;6.60;;;10.60;93.20;;;;;;5029489;28;20502;-58
2024/02/27 06:41:23;;;;;;;20.25;6.43;;;10.60;93.30;;;;;;5045818;28;20017;-58
2024/02/27 06:43:48;;;;;;;45.72;7.50;;;10.60;93.30;;;;;;5049035;28;20021;-58
2024/02/27 06:46:14;;;;;;;34.95;7.65;;;10.60;93.40;;;;;;5032651;28;20018;-57
2024/02/27 06:48:40;;;;;;;91.85;10.63;;;10.60;93.60;;;;;;5016339;28;20439;-57
2024/02/27 06:51:07;;;;;;;54.42;8.95;;;10.60;93.50;;;;;;5032525;28;20044;-58
2024/02/27 06:53:33;;;;;;;29.83;7.40;;;10.60;93.50;;;;;;5049441;28;20029;-58
2024/02/27 06:55:59;;;;;;;33.90;7.13;;;10.60;93.50;;;;;;5067222;28;20140;-57
2024/02/27 06:58:25;;;;;;;27.30;6.75;;;10.60;93.50;;;;;;5066855;28;20060;-58
2024/02/27 07:00:50;;;;;;;31.08;6.63;;;10.60;93.50;;;;;;5050379;28;20442;-58
2024/02/27 07:03:16;;;;;;;22.27;6.13;;;10.60;93.50;;;;;;5046647;28;20134;-58
2024/02/27 07:05:41;;;;;;;40.53;8.00;;;10.60;93.60;;;;;;5029014;28;20021;-57
2024/02/27 07:08:10;;;;;;;37.78;7.63;;;10.60;93.70;;;;;;5029179;28;20066;-57
2024/02/27 07:10:36;;;;;;;36.85;7.38;;;10.60;93.70;;;;;;5046040;28;20033;-57
2024/02/27 07:13:05;;;;;;;39.17;6.97;;;10.60;93.70;;;;;;5026660;28;20171;-57
2024/02/27 07:15:31;;;;;;;37.58;7.45;;;10.60;93.70;;;;;;5026662;28;20116;-58
2024/02/27 07:17:56;;;;;;;37.33;8.00;;;10.60;93.80;;;;;;5026546;28;20032;-58
2024/02/27 07:20:22;;;;;;;29.73;7.53;;;10.50;93.80;;;;;;5026283;28;20033;-58
2024/02/27 07:22:48;;;;;;;39.70;8.38;;;10.50;93.90;;;;;;5009760;28;20093;-58
2024/02/27 07:25:14;;;;;;;38.55;7.53;;;10.60;93.90;;;;;;5027105;28;20180;-58
2024/02/27 07:27:40;;;;;;;39.63;8.02;;;10.50;93.90;;;;;;5040314;28;20196;-58
2024/02/27 07:30:06;;;;;;;35.63;7.97;;;10.50;93.90;;;;;;5008526;28;20114;-57
2024/02/27 07:32:32;;;;;;;35.10;7.97;;;10.60;93.90;;;;;;4992458;28;20103;-58
2024/02/27 07:34:57;;;;;;;40.42;8.45;;;10.60;93.90;;;;;;5013708;28;20061;-58
2024/02/27 07:37:23;;;;;;;20.27;6.43;;;10.60;93.90;;;;;;5001013;28;20026;-58
2024/02/27 07:39:49;;;;;;;29.88;7.10;;;10.60;93.90;;;;;;5018390;28;20060;-58
2024/02/27 07:42:14;;;;;;;28.60;6.63;;;10.60;93.90;;;;;;5018304;28;20029;-58
2024/02/27 07:44:40;;;;;;;25.23;7.25;;;10.60;93.90;;;;;;5015831;28;20055;-58
2024/02/27 07:47:05;;;;;;;36.67;8.48;;;10.60;93.90;;;;;;5045616;28;20074;-57
2024/02/27 07:49:31;;;;;;;31.23;7.57;;;10.50;93.90;;;;;;5026194;28;20049;-58
2024/02/27 07:51:56;;;;;;;27.15;7.25;;;10.50;93.90;;;;;;5044852;28;20034;-58
2024/02/27 07:54:22;;;;;;;27.25;6.88;;;10.50;93.90;;;;;;5010905;28;20037;-58
2024/02/27 07:56:48;;;;;;;40.42;7.38;;;10.50;93.90;;;;;;5045625;28;20117;-58
2024/02/27 07:59:15;;;;;;;30.80;7.10;;;10.50;93.90;;;;;;5010748;28;20057;-58
2024/02/27 08:01:40;;;;;;;37.03;7.28;;;10.50;93.90;;;;;;5026923;28;20029;-58
2024/02/27 08:04:06;;;;;;;35.60;8.50;;;10.50;93.90;;;;;;5045309;28;20025;-58
2024/02/27 08:06:32;;;;;;;35.17;7.22;;;10.50;93.90;;;;;;5026913;28;20055;-58
2024/02/27 08:08:57;;;;;;;19.88;6.38;;;10.50;93.90;;;;;;5027217;28;20051;-58
2024/02/27 08:11:23;;;;;;;24.55;6.95;;;10.50;93.90;;;;;;5026740;28;20027;-58
2024/02/27 08:13:49;;;;;;;22.98;7.03;;;10.50;93.80;;;;;;5026317;28;20119;-58
2024/02/27 08:16:14;;;;;;;45.70;8.45;;;10.50;93.90;;;;;;5026519;28;20033;-57
2024/02/27 08:18:40;;;;;;;37.45;7.45;;;10.50;93.90;;;;;;5025364;28;20083;-58
2024/02/27 08:21:06;;;;;;;35.33;8.13;;;10.60;93.90;;;;;;5044021;28;20075;-58
2024/02/27 08:23:31;;;;;;;39.53;7.82;;;10.50;93.90;;;;;;5025940;28;20028;-58
2024/02/27 08:25:58;;;;;;;24.50;6.90;;;10.50;93.80;;;;;;5026563;28;20387;-58
2024/02/27 08:28:25;;;;;;;20.63;6.70;;;10.60;93.80;;;;;;4993806;28;20033;-58
2024/02/27 08:30:51;;;;;;;22.55;5.95;;;10.60;93.80;;;;;;5042204;28;20026;-58
2024/02/27 08:33:17;;;;;;;23.80;7.18;;;10.60;93.80;;;;;;5009575;28;20048;-58
2024/02/27 08:35:42;;;;;;;32.95;6.03;;;10.60;93.70;;;;;;5026159;28;20022;-58
2024/02/27 08:38:08;;;;;;;23.42;6.80;;;10.60;93.70;;;;;;5009886;28;20333;-58
2024/02/27 08:40:33;;;;;;;28.25;6.60;;;10.60;93.70;;;;;;5024940;28;20025;-57
2024/02/27 08:42:59;;;;;;;30.10;6.60;;;10.60;93.60;;;;;;5009029;28;20052;-58
2024/02/27 08:45:25;;;;;;;28.33;6.75;;;10.60;93.60;;;;;;5025141;28;20068;-58
2024/02/27 08:47:50;;;;;;;28.83;6.90;;;10.70;93.60;;;;;;4991566;28;20029;-58
2024/02/27 08:50:16;;;;;;;31.98;6.75;;;10.70;93.60;;;;;;5024299;28;20101;-57
2024/02/27 08:52:42;;;;;;;22.35;6.60;;;10.70;93.50;;;;;;5023631;28;20032;-58
2024/02/27 08:55:08;;;;;;;28.65;6.93;;;10.70;93.50;;;;;;5007092;28;20526;-58
2024/02/27 08:57:33;;;;;;;24.35;5.60;;;10.40;93.40;;;;;;5018833;28;20400;-58
2024/02/27 08:59:59;;;;;;;27.02;6.57;;;10.70;93.50;;;;;;5007222;28;20369;-58
2024/02/27 09:02:25;;;;;;;24.63;6.18;;;10.70;93.40;;;;;;5004803;28;20052;-58
2024/02/27 09:04:51;;;;;;;31.25;6.40;;;10.70;93.40;;;;;;5008692;28;20152;-58
2024/02/27 09:07:16;;;;;;;23.33;6.10;;;10.80;93.40;;;;;;5021481;28;20527;-58
2024/02/27 09:09:45;;;;;;;43.85;7.38;;;10.80;93.30;;;;;;5010542;28;20040;-58
2024/02/27 09:12:11;;;;;;;47.78;8.18;;;10.80;93.30;;;;;;5026323;28;20056;-58
2024/02/27 09:14:37;;;;;;;34.00;6.88;;;10.80;93.30;;;;;;5041024;28;20056;-58
2024/02/27 09:17:03;;;;;;;38.67;7.90;;;10.80;93.20;;;;;;5009691;28;20131;-58
2024/02/27 09:19:29;;;;;;;47.63;8.07;;;10.90;93.20;;;;;;5025681;28;20026;-55
2024/02/27 09:21:55;;;;;;;38.28;7.70;;;10.90;93.20;;;;;;5008270;28;20021;-55
2024/02/27 09:24:21;;;;;;;38.33;8.07;;;10.90;93.20;;;;;;5025189;28;20468;-55
2024/02/27 09:26:46;;;;;;;52.92;8.32;;;10.90;93.10;;;;;;5024055;28;20096;-55
2024/02/27 09:29:12;;;;;;;53.20;7.53;;;10.90;93.10;;;;;;5019800;28;20064;-55
2024/02/27 09:31:38;;;;;;;66.55;9.65;;;11.00;93.10;;;;;;5039410;28;20029;-55
2024/02/27 09:34:10;;;;;;;61.17;10.15;;;11.00;93.10;;;;;;5023126;28;20451;-58
2024/02/27 09:36:35;;;;;;;70.93;11.55;;;11.00;93.10;;;;;;5042616;28;20097;-55
2024/02/27 09:39:01;;;;;;;62.13;9.88;;;11.00;93.20;;;;;;5023414;28;20073;-58
2024/02/27 09:42:02;;;;;;;69.88;11.95;;;11.10;93.40;;;;;;4994961;28;20029;-57
2024/02/27 09:44:28;;;;;;;74.85;12.20;;;11.10;93.10;;;;;;5029270;28;20048;-56
2024/02/27 09:46:53;;;;;;;80.68;12.63;;;11.10;93.10;;;;;;5025167;28;20037;-56
2024/02/27 09:49:19;;;;;;;81.13;12.52;;;11.10;93.10;;;;;;4979611;28;20121;-56
2024/02/27 09:51:45;;;;;;;91.40;13.93;;;11.10;93.20;;;;;;4998351;23;20047;-86
2024/02/27 09:54:11;;;;;;;98.50;13.95;;;11.10;93.20;;;;;;4983583;28;20053;-84
2024/02/27 10:33:38;;;;;;;62.40;11.25;;;11.40;92.70;;;;;;5266220;22;20049;-59
2024/02/27 11:02:53;;;;;;;53.17;10.50;;;11.60;92.20;;;;;;4474722;22;20381;-58
2024/02/27 11:20:00;;;;;;;57.70;10.45;;;11.60;92.00;;;;;;3477780;22;20878;-58
2024/02/27 11:28:55;;;;;;;72.93;11.82;;;11.80;92.00;;;;;;4974238;28;20087;-57
2024/02/27 11:31:27;;;;;;;46.78;9.98;;;11.80;92.00;;;;;;4935990;22;20201;-84
2024/02/27 11:40:30;;;;;;;50.65;10.45;;;11.90;91.90;;;;;;5003374;28;20056;-84
2024/02/27 12:20:28;;;;;;;70.43;13.00;;;12.10;91.40;;;;;;5083396;22;20229;-59
2024/02/27 13:10:18;;;;;;;148.70;19.63;;;12.70;90.40;;;;;;5064687;22;20038;-56
2024/02/27 13:15:19;;;;;;;70.43;14.23;;;12.70;90.50;;;;;;5223547;22;20980;-57
2024/02/27 13:20:42;;;;;;;92.75;15.98;;;12.80;90.60;;;;;;5063830;28;20064;-85
2024/02/27 13:23:08;;;;;;;169.27;19.75;;;12.80;90.40;;;;;;5047894;28;20025;-84
2024/02/27 13:25:35;;;;;;;75.47;12.75;;;12.80;90.30;;;;;;5031333;28;20045;-85
2024/02/27 13:28:02;;;;;;;76.00;14.07;;;12.90;90.30;;;;;;5065431;28;20033;-86
2024/02/27 13:30:27;;;;;;;59.95;13.27;;;12.90;90.00;;;;;;5066775;28;20032;-83
2024/02/27 13:32:56;;;;;;;52.60;14.43;;;13.00;89.80;;;;;;5064689;28;20041;-85
2024/02/27 13:35:22;;;;;;;87.90;15.50;;;13.00;89.70;;;;;;5047445;28;20021;-84
2024/02/27 13:37:50;;;;;;;71.18;15.63;;;13.00;90.00;;;;;;5031710;28;20029;-86
2024/02/27 13:40:16;;;;;;;69.90;14.60;;;13.10;89.80;;;;;;5048191;28;20033;-86
2024/02/27 13:42:41;;;;;;;81.45;13.20;;;13.10;90.00;;;;;;5015282;28;20025;-84
2024/02/27 13:45:07;;;;;;;80.10;13.77;;;13.20;89.60;;;;;;5030784;28;20070;-85
2024/02/27 13:47:33;;;;;;;69.85;14.52;;;13.10;89.20;;;;;;5048569;28;20028;-86
2024/02/27 13:49:58;;;;;;;78.47;13.80;;;13.10;89.40;;;;;;5031116;28;20025;-85
2024/02/27 13:52:27;;;;;;;66.50;14.10;;;13.10;88.90;;;;;;5012552;28;20112;-86
2024/02/27 13:54:53;;;;;;;64.15;13.90;;;13.20;89.20;;;;;;5031335;28;20115;-85
2024/02/27 13:57:18;;;;;;;50.28;11.95;;;13.10;89.20;;;;;;5031442;28;20044;-86
2024/02/27 13:59:44;;;;;;;73.75;13.82;;;13.20;89.20;;;;;;5010868;28;20037;-82
2024/02/27 14:02:10;;;;;;;83.88;13.60;;;13.20;88.90;;;;;;5013168;28;20488;-84
2024/02/27 14:04:35;;;;;;;71.78;13.73;;;13.30;89.40;;;;;;5022001;28;20333;-84
2024/02/27 14:07:01;;;;;;;60.95;11.60;;;13.20;89.00;;;;;;5005835;28;20021;-84
2024/02/27 14:09:27;;;;;;;63.67;13.02;;;13.30;88.60;;;;;;5016527;28;20031;-84
2024/02/27 14:11:52;;;;;;;61.17;12.20;;;13.30;88.80;;;;;;5011962;28;20087;-83
2024/02/27 14:14:18;;;;;;;57.03;11.95;;;13.30;88.70;;;;;;5026691;28;20036;-85
2024/02/27 14:16:44;;;;;;;69.25;12.63;;;13.30;88.80;;;;;;5013063;28;20033;-83
2024/02/27 14:19:09;;;;;;;56.67;11.95;;;13.30;88.80;;;;;;5029994;28;20088;-84
2024/02/27 14:21:38;;;;;;;56.10;12.30;;;13.30;88.70;;;;;;5047128;28;20037;-83
2024/02/27 14:24:04;;;;;;;51.38;12.45;;;13.30;88.90;;;;;;5044948;28;20059;-85
2024/02/27 14:26:30;;;;;;;48.95;12.15;;;13.30;88.70;;;;;;5048752;28;20036;-84
2024/02/27 14:28:56;;;;;;;50.20;11.35;;;13.30;88.80;;;;;;5040357;28;20029;-83
2024/02/27 14:31:23;;;;;;;45.75;11.30;;;13.40;88.90;;;;;;5005250;28;20151;-82
2024/02/27 14:33:48;;;;;;;55.90;11.60;;;13.30;88.60;;;;;;5030219;28;20041;-84
2024/02/27 14:36:17;;;;;;;47.78;11.27;;;13.40;88.40;;;;;;5005931;28;20391;-83
2024/02/27 14:38:42;;;;;;;34.05;11.18;;;13.40;88.70;;;;;;5038207;28;20025;-84
2024/02/27 14:41:11;;;;;;;40.28;10.45;;;13.40;88.40;;;;;;5020798;28;20298;-85
2024/02/27 14:53:44;;;;;;;49.08;12.45;;;13.50;87.90;;;;;;5055685;22;20057;-58
2024/02/27 14:59:32;;;;;;;43.38;11.00;;;13.50;87.70;;;;;;5028474;28;20060;-58
2024/02/27 15:01:57;;;;;;;71.57;13.13;;;13.50;87.80;;;;;;5023208;28;20017;-58
2024/02/27 15:04:23;;;;;;;78.28;14.20;;;13.50;87.90;;;;;;5040403;28;20053;-57
2024/02/27 15:06:48;;;;;;;73.60;13.40;;;13.60;88.10;;;;;;5024933;28;20420;-58
2024/02/27 15:15:58;;;;;;;63.97;12.05;;;13.70;87.90;;;;;;5070496;22;20095;-50
2024/02/27 15:18:25;;;;;;;65.93;12.82;;;13.60;88.00;;;;;;5043951;28;20021;-50
2024/02/27 15:20:54;;;;;;;92.55;15.27;;;13.60;88.00;;;;;;5016349;28;20409;-50
2024/02/27 15:23:19;;;;;;;64.88;12.68;;;13.60;88.00;;;;;;5061386;28;20025;-51
2024/02/27 15:25:45;;;;;;;168.00;20.92;;;13.60;88.00;;;;;;5016395;28;20021;-51
2024/02/27 15:28:11;;;;;;;166.65;24.45;;;13.60;87.70;;;;;;5061858;28;20376;-50
2024/02/27 15:30:36;;;;;;;159.48;22.48;;;13.60;87.80;;;;;;5047017;28;20055;-50
2024/02/27 15:33:02;;;;;;;156.52;22.88;;;13.70;87.90;;;;;;5043904;28;20061;-53
2024/02/27 15:35:28;;;;;;;110.55;17.90;;;13.70;88.00;;;;;;5048904;28;20064;-51
2024/02/27 15:37:54;;;;;;;192.05;24.70;;;13.70;87.90;;;;;;5060811;28;20021;-52
2024/02/27 15:40:19;;;;;;;146.98;21.95;;;13.70;88.10;;;;;;5037532;28;20475;-51
2024/02/27 15:42:45;;;;;;;118.70;20.70;;;13.60;88.30;;;;;;5064683;28;20105;-50
2024/02/27 15:45:10;;;;;;;186.23;26.60;;;13.70;88.30;;;;;;5054699;28;20029;-50
2024/02/27 15:47:36;;;;;;;161.10;23.65;;;13.60;87.90;;;;;;5065880;28;20028;-50
2024/02/27 15:50:02;;;;;;;133.35;20.52;;;13.70;88.20;;;;;;5035090;28;20025;-50
2024/02/27 15:52:28;;;;;;;129.38;20.50;;;13.70;88.20;;;;;;5044052;28;20095;-50
2024/02/27 15:59:57;;;;;;;141.52;20.42;;;13.70;88.20;;;;;;5060271;28;20041;-57
2024/02/27 16:02:23;;;;;;;191.73;24.77;;;13.70;88.20;;;;;;5060689;28;20058;-57
2024/02/27 16:04:53;;;;;;;120.13;20.73;;;13.80;88.50;;;;;;5064334;28;20423;-58
2024/02/27 16:07:31;;;;;;;124.95;19.63;;;13.80;89.00;;;;;;5034283;28;20040;-57
2024/02/27 16:10:06;;;;;;;139.98;20.60;;;13.80;88.30;;;;;;5042968;28;20021;-57
2024/02/27 16:12:32;;;;;;;137.25;22.75;;;13.80;88.30;;;;;;5045773;28;20032;-57
2024/02/27 16:14:59;;;;;;;181.40;25.02;;;13.80;88.50;;;;;;5059018;28;20033;-57
2024/02/27 16:17:25;;;;;;;182.43;25.05;;;13.80;88.70;;;;;;5059080;28;20122;-57
2024/02/27 16:19:51;;;;;;;175.30;25.05;;;13.80;88.80;;;;;;5026895;28;20029;-57
2024/02/27 16:22:19;;;;;;;183.27;25.70;;;13.80;88.90;;;;;;5028636;28;20021;-57
2024/02/27 16:24:46;;;;;;;179.75;27.55;;;13.80;89.00;;;;;;5031097;28;20054;-58
2024/02/27 16:27:11;;;;;;;188.85;25.63;;;13.80;89.10;;;;;;5065359;28;20426;-57
2024/02/27 16:29:37;;;;;;;200.30;27.30;;;13.80;89.30;;;;;;5036919;28;20029;-58
2024/02/27 16:32:03;;;;;;;184.73;26.58;;;13.80;89.40;;;;;;5045375;28;20025;-57
2024/02/27 16:34:29;;;;;;;294.00;34.05;;;13.80;89.70;;;;;;5063398;28;20028;-57
2024/02/27 16:36:57;;;;;;;293.88;34.47;;;13.80;89.70;;;;;;5073021;28;20040;-51
2024/02/27 16:39:23;;;;;;;303.90;38.05;;;13.90;90.00;;;;;;5026534;28;20063;-51
2024/02/27 16:41:49;;;;;;;262.33;33.08;;;13.90;90.00;;;;;;5046803;28;20041;-51
2024/02/27 16:44:14;;;;;;;392.10;45.90;;;13.90;90.10;;;;;;5027791;28;20021;-51
2024/02/27 16:46:40;;;;;;;305.42;37.17;;;13.90;90.10;;;;;;5025835;28;20036;-51
2024/02/27 16:49:05;;;;;;;324.90;39.17;;;13.90;90.30;;;;;;5059402;28;20044;-51
2024/02/27 16:51:31;;;;;;;327.48;42.15;;;13.90;90.20;;;;;;5040484;28;20044;-51
2024/02/27 16:53:57;;;;;;;245.38;31.25;;;13.90;90.20;;;;;;5044974;28;20028;-51
2024/02/27 16:56:22;;;;;;;238.30;31.98;;;13.90;89.50;;;;;;5040792;28;20084;-51
2024/02/27 16:58:48;;;;;;;254.68;33.25;;;13.90;90.00;;;;;;5054037;28;20043;-51
2024/02/27 17:01:14;;;;;;;238.15;31.17;;;13.90;90.20;;;;;;5037867;28;20057;-51
2024/02/27 17:03:40;;;;;;;229.15;32.45;;;13.90;90.30;;;;;;5043650;28;20025;-51
2024/02/27 17:06:07;;;;;;;269.63;34.38;;;13.90;90.30;;;;;;5043521;28;20044;-51
2024/02/27 17:08:32;;;;;;;302.25;38.38;;;14.00;90.20;;;;;;5037789;28;20021;-51
2024/02/27 17:10:59;;;;;;;297.88;38.08;;;14.00;90.20;;;;;;5038583;28;20041;-51
2024/02/27 17:13:25;;;;;;;257.77;36.00;;;14.00;90.30;;;;;;5036007;28;20044;-51
2024/02/27 17:15:51;;;;;;;263.58;36.67;;;14.00;90.20;;;;;;5058416;28;20032;-51
2024/02/27 17:18:17;;;;;;;280.67;37.40;;;14.00;90.30;;;;;;5024144;28;20021;-51
2024/02/27 17:20:43;;;;;;;270.13;36.17;;;14.00;90.40;;;;;;5036712;28;20033;-51
2024/02/27 17:23:10;;;;;;;323.17;45.88;;;14.00;90.20;;;;;;5023800;28;20017;-51
2024/02/27 17:25:36;;;;;;;327.73;42.60;;;14.00;90.50;;;;;;5020302;28;20031;-51
2024/02/27 17:28:03;;;;;;;296.15;39.38;;;14.10;90.70;;;;;;5058581;28;20098;-51
2024/02/27 17:30:28;;;;;;;371.55;45.03;;;14.10;90.60;;;;;;5055425;28;20024;-51
2024/02/27 17:32:54;;;;;;;347.02;44.25;;;14.10;90.60;;;;;;5045838;28;20394;-51
2024/02/27 17:35:19;;;;;;;344.33;43.55;;;14.10;90.60;;;;;;5027358;28;20067;-51
2024/02/27 17:37:45;;;;;;;368.60;46.97;;;14.20;90.60;;;;;;5021959;28;20040;-51
2024/02/27 17:40:11;;;;;;;337.10;44.42;;;14.20;90.50;;;;;;5047786;28;20029;-51
2024/02/27 17:42:37;;;;;;;419.38;50.55;;;14.10;90.40;;;;;;5045408;28;20473;-51
2024/02/27 17:45:02;;;;;;;397.92;49.90;;;14.20;90.40;;;;;;5046119;28;20025;-51
2024/02/27 17:47:28;;;;;;;505.25;61.40;;;14.20;90.70;;;;;;5057952;28;20052;-51
2024/02/27 17:49:54;;;;;;;392.10;51.58;;;14.30;90.70;;;;;;5030494;28;20435;-51
2024/02/27 17:52:20;;;;;;;363.85;44.40;;;14.30;90.60;;;;;;5041621;28;20380;-51
2024/02/27 17:54:46;;;;;;;518.53;61.78;;;14.30;90.70;;;;;;5063196;28;20036;-51
2024/02/27 17:57:11;;;;;;;430.90;54.47;;;14.30;90.50;;;;;;5040647;28;20033;-51
2024/02/27 17:59:37;;;;;;;507.40;58.15;;;14.30;90.60;;;;;;5043104;28;20047;-50
2024/02/27 18:02:03;;;;;;;466.73;55.65;;;14.30;90.70;;;;;;5019781;28;20029;-51
2024/02/27 18:04:29;;;;;;;482.80;61.22;;;14.30;90.70;;;;;;5029657;28;20049;-52
2024/02/27 18:06:56;;;;;;;472.48;60.25;;;14.30;90.60;;;;;;5045603;28;20163;-52
2024/02/27 18:09:22;;;;;;;572.97;73.00;;;14.30;90.60;;;;;;5061598;28;20033;-51
2024/02/27 18:11:48;;;;;;;532.42;67.85;;;14.30;90.80;;;;;;5059424;28;20059;-51
2024/02/27 18:14:15;;;;;;;569.20;67.82;;;14.30;91.00;;;;;;5044168;28;20476;-51
2024/02/27 18:16:40;;;;;;;532.67;71.32;;;14.40;91.10;;;;;;5060766;28;20037;-51
2024/02/27 18:19:06;;;;;;;548.65;71.18;;;14.50;90.80;;;;;;5046229;28;20048;-51
2024/02/27 18:21:32;;;;;;;586.72;70.60;;;14.60;90.50;;;;;;5044107;28;20034;-51
2024/02/27 18:23:57;;;;;;;522.42;65.68;;;14.60;90.50;;;;;;5039645;28;20026;-51
2024/02/27 18:26:23;;;;;;;564.90;68.32;;;14.60;90.50;;;;;;5041731;28;20052;-51
2024/02/27 18:28:49;;;;;;;546.15;68.38;;;14.60;90.50;;;;;;5029652;28;20025;-51
2024/02/27 18:31:22;;;;;;;527.67;71.38;;;14.70;90.60;;;;;;5028335;28;20040;-51
2024/02/27 18:33:47;;;;;;;598.55;79.18;;;14.70;90.60;;;;;;5027445;28;20116;-51
2024/02/27 18:36:13;;;;;;;640.05;85.72;;;14.70;90.50;;;;;;5030691;28;20132;-51
2024/02/27 18:38:39;;;;;;;637.72;78.00;;;14.70;90.70;;;;;;5061284;28;20051;-51
2024/02/27 18:41:05;;;;;;;662.20;86.38;;;14.70;90.70;;;;;;5050110;28;20092;-50
2024/02/27 18:43:31;;;;;;;639.67;81.57;;;14.70;90.70;;;;;;5037781;28;20017;-51
2024/02/27 18:45:56;;;;;;;617.85;81.00;;;14.70;90.90;;;;;;5041187;28;20042;-51
2024/02/27 18:48:22;;;;;;;726.80;101.20;;;14.80;90.90;;;;;;5038270;28;20039;-51
2024/02/27 18:50:48;;;;;;;632.90;82.47;;;14.80;90.90;;;;;;5048944;28;20032;-51
2024/02/27 18:53:14;;;;;;;647.22;84.75;;;14.90;90.60;;;;;;5025194;28;20033;-51
2024/02/27 18:55:39;;;;;;;611.00;81.40;;;14.90;90.60;;;;;;5039300;28;20048;-50